Pagina principale
METAR-TAF:

METAR-TAF

Aeroporti :

Aeroporto di Helsinki-Vantaa

Helsinki, Finlandia

latitudine: 60-19N, longitudine: 024-58E, altezza: 51 m

Osservazione

Il bollettino è stato emesso 5 minuti fa, alle 22:50 UTC
Vento 2 kt da ovest/sud-ovest
Temperature 12°C
Umidità 100%
Pressione 1015 hPa
Visibilità 10 km o più
nessuna nube inferiore a 1500 m e nessun cumulonembo

METAR: EFHK 152250Z 24002KT CAVOK 12/12 Q1015 NOSIG

Ora: 01:55 (22:55 UTC)

Previsione

Il bollettino è stato emesso 2 ore e 26 minuti fa, alle 20:29 UTC
Previsione valida dal 15 alle 21 UTC al 16 alle 21 UTC
Vento 3 kt da ovest/nord-ovest
Visibilità 10 km o più
nessuna nube inferiore a 1500 m e nessun cumulonembo
Temporaneamente
dal 16 alle 00 UTC al 16 alle 04 UTC
Visibilità: 5000 m
foschia
Evoluzione graduale
dal 16 alle 08 UTC al 16 alle 10 UTC
Vento 10 kt da sud/sud-ovest

TAF: EFHK 152029Z 1521/1621 29003KT CAVOK TEMPO 1600/1604 5000 BR BECMG 1608/1610 21010KT

Osservazioni e previsioni meteorologiche di più di 4000 aeroporti (messaggi METAR e TAF).

Le stazioni disponibili sono rappresentate dai dischi gialli e rossi sulla carta.

Puntare il mouse per vedere il nome della stazione.

Clicca sopra per visualizzare le osservazioni e previsioni meteorologiche.

Per cambiare la mappa : fare clic sui pulsanti verdi con una croce nera per ingrandire, il pulsante verde con un trattino per diminuire, o sulla freccia verde per le mappe adiacenti.


METAR-TAF: